Thornton, United Kingdom
Current Conditions -  °F | °C
As of 6:50 PM on Sunday 23 Nov 2014 (Local Time) from EGPH Reporting Station
Scattered Clouds Scattered Clouds  
Wind Chill: 35°   Ceiling: Unl
Heat Index: 41°   Visibility: 6mi
Dew Point: 37°   Wind: 10mph
Humidity: 87%   Direction: 240°WSW
Pressure: 30"   Gusts: NA
Location:  56.17°N, 3.15°W
Report Text: EGPH 231850Z 24009KT 9999 SCT038 05/03 Q1016
Loading
Personal Weather Stations






























Interactive Weather Map New forecast layout! Learn more

10-Day Weather Forecast

Advertisements
Track Severe Weather on mobile